Time;durP1;ratioP1;P1;durP2;ratioP2;P2;SDS_P1;SDS_P2;PMS_P1;PMS_P2;Temp;Humidity;BMP_temperature;BMP_pressure;BME280_temperature;BME280_humidity;BME280_pressure;Samples;Min_cycle;Max_cycle;Signal;HPM_P1;HPM_P2
2023/08/19 00:01:00;;;;;;;;;15.25;15.00;;;;;24.69;100.00;98932.72;6287145;27;97121;-68
2023/08/19 00:04:04;;;;;;;;;14.00;13.67;;;;;24.77;100.00;98938.31;6287817;27;97185;-68
2023/08/19 00:07:07;;;;;;;;;15.00;15.00;;;;;24.81;100.00;98936.56;6288314;27;97452;-69
2023/08/19 00:10:12;;;;;;;;;13.75;12.50;;;;;24.82;100.00;98940.97;6268457;27;98614;-68
2023/08/19 00:13:15;;;;;;;;;14.60;14.40;;;;;24.81;100.00;98944.84;6287251;27;96652;-67
2023/08/19 00:16:18;;;;;;;;;18.50;15.50;;;;;24.80;100.00;98936.88;6262637;27;99618;-68
2023/08/19 00:19:22;;;;;;;;;13.00;12.00;;;;;24.87;100.00;98929.00;6242946;27;99292;-68
2023/08/19 00:22:25;;;;;;;;;15.00;13.75;;;;;24.93;100.00;98939.59;6264675;27;96847;-68
2023/08/19 00:25:30;;;;;;;;;16.00;14.00;;;;;24.93;100.00;98925.78;6271973;27;96529;-68
2023/08/19 00:28:33;;;;;;;;;15.00;15.00;;;;;24.93;100.00;98930.50;6264690;27;96561;-68
2023/08/19 00:31:39;;;;;;;;;15.00;14.00;;;;;24.87;100.00;98931.78;6284229;27;96553;-68
2023/08/19 00:34:43;;;;;;;;;14.60;14.00;;;;;24.78;100.00;98920.63;6249691;27;97310;-68
2023/08/19 00:37:46;;;;;;;;;15.00;14.40;;;;;24.73;100.00;98925.47;6250947;27;96885;-68
2023/08/19 00:40:50;;;;;;;;;18.00;15.60;;;;;24.68;100.00;98926.38;6267440;27;97066;-68
2023/08/19 00:43:55;;;;;;;;;17.00;14.40;;;;;24.66;100.00;98928.66;6267317;27;96548;-68
2023/08/19 00:46:58;;;;;;;;;15.00;15.00;;;;;24.65;100.00;98923.47;6287958;27;96354;-68
2023/08/19 00:50:02;;;;;;;;;13.25;13.00;;;;;24.63;100.00;98915.50;6269020;27;96368;-68
2023/08/19 00:53:09;;;;;;;;;12.50;12.50;;;;;24.60;100.00;98913.38;6268862;27;96479;-68
2023/08/19 00:56:15;;;;;;;;;14.60;13.60;;;;;24.59;100.00;98900.72;6286646;27;96645;-69
2023/08/19 00:59:18;;;;;;;;;15.00;14.00;;;;;24.62;100.00;98910.31;6266151;27;96410;-68
2023/08/19 01:02:21;;;;;;;;;14.60;14.00;;;;;24.64;100.00;98910.78;6249163;27;96565;-68
2023/08/19 01:05:34;;;;;;;;;14.50;13.50;;;;;24.63;100.00;98906.44;6248380;27;96358;-69
2023/08/19 01:08:45;;;;;;;;;15.60;15.00;;;;;24.63;100.00;98900.91;6254719;27;96965;-68
2023/08/19 01:12:01;;;;;;;;;15.00;13.60;;;;;24.64;100.00;98895.06;6236255;27;98757;-68
2023/08/19 01:15:09;;;;;;;;;16.60;16.00;;;;;24.67;100.00;98890.88;6281030;27;96778;-68
2023/08/19 01:18:16;;;;;;;;;15.25;13.00;;;;;24.68;100.00;98896.06;6247965;27;96863;-68
2023/08/19 01:21:21;;;;;;;;;14.00;13.00;;;;;24.64;100.00;98895.06;6273541;27;96369;-68
2023/08/19 01:24:28;;;;;;;;;15.00;14.60;;;;;24.58;100.00;98899.88;6256343;27;96388;-69
2023/08/19 01:27:33;;;;;;;;;17.00;14.40;;;;;24.53;100.00;98907.50;6251105;27;96405;-69
2023/08/19 01:30:37;;;;;;;;;15.40;15.20;;;;;24.52;100.00;98903.91;6245095;27;98583;-68
2023/08/19 01:33:40;;;;;;;;;16.50;15.00;;;;;24.57;100.00;98914.00;6240425;27;97320;-68
2023/08/19 01:36:48;;;;;;;;;16.00;14.20;;;;;24.62;100.00;98908.38;6238693;27;98814;-69
2023/08/19 01:39:54;;;;;;;;;14.00;13.00;;;;;24.67;100.00;98911.00;6261415;27;96970;-68
2023/08/19 01:43:00;;;;;;;;;15.40;13.40;;;;;24.68;100.00;98911.81;6233935;27;97013;-68
2023/08/19 01:46:04;;;;;;;;;15.00;13.80;;;;;24.70;100.00;98915.06;6242581;27;97430;-69
2023/08/19 01:49:07;;;;;;;;;15.00;14.00;;;;;24.68;100.00;98915.38;6273425;27;97364;-69
2023/08/19 01:52:11;;;;;;;;;16.00;13.60;;;;;24.68;100.00;98918.13;6251351;27;96524;-69
2023/08/19 01:55:14;;;;;;;;;14.00;14.00;;;;;24.63;100.00;98900.91;6247960;27;96931;-68
2023/08/19 01:58:18;;;;;;;;;12.60;12.60;;;;;24.71;100.00;98909.25;6282524;27;96532;-69
2023/08/19 02:01:22;;;;;;;;;13.40;12.40;;;;;24.74;100.00;98907.78;6254724;27;97938;-68
2023/08/19 02:04:25;;;;;;;;;17.80;15.00;;;;;24.77;100.00;98902.47;6270470;27;96515;-69
2023/08/19 02:07:28;;;;;;;;;14.60;14.20;;;;;24.80;100.00;98901.03;6276998;27;97168;-68
2023/08/19 02:10:32;;;;;;;;;16.60;14.60;;;;;24.81;100.00;98909.00;6254177;27;96731;-69
2023/08/19 02:13:37;;;;;;;;;13.80;13.40;;;;;24.84;100.00;98910.28;6289823;27;96933;-69
2023/08/19 02:16:40;;;;;;;;;14.60;13.60;;;;;24.84;100.00;98916.63;6270588;27;97024;-69
2023/08/19 02:19:45;;;;;;;;;17.40;16.00;;;;;24.85;100.00;98917.44;6258403;27;96966;-69
2023/08/19 02:22:48;;;;;;;;;14.50;14.00;;;;;24.86;100.00;98914.38;6271221;27;97617;-68
2023/08/19 02:25:52;;;;;;;;;14.00;12.40;;;;;24.84;100.00;98908.34;6269767;27;96834;-68
2023/08/19 02:28:57;;;;;;;;;13.25;12.25;;;;;24.89;100.00;98916.53;6289839;27;96403;-69
2023/08/19 02:32:00;;;;;;;;;15.40;13.00;;;;;24.90;100.00;98911.84;6282155;27;96579;-68
2023/08/19 02:35:04;;;;;;;;;13.00;11.20;;;;;24.90;100.00;98907.13;6270376;27;96996;-69
2023/08/19 02:38:07;;;;;;;;;14.60;12.60;;;;;24.93;100.00;98916.69;6287944;27;96443;-67
2023/08/19 02:41:10;;;;;;;;;14.67;14.00;;;;;24.94;100.00;98918.34;6270903;27;96838;-69
2023/08/19 02:44:15;;;;;;;;;13.00;12.00;;;;;24.94;100.00;98908.13;6253193;27;98531;-69
2023/08/19 02:47:18;;;;;;;;;16.00;14.50;;;;;24.94;100.00;98913.63;6290105;27;97994;-68
2023/08/19 02:50:21;;;;;;;;;15.00;14.00;;;;;25.02;100.00;98923.91;6250527;27;99283;-69
2023/08/19 02:53:24;;;;;;;;;13.00;12.50;;;;;25.00;100.00;98919.84;6288936;27;97634;-68
2023/08/19 02:56:27;;;;;;;;;14.40;12.40;;;;;24.97;100.00;98914.97;6287932;27;96839;-68
2023/08/19 02:59:32;;;;;;;;;12.00;11.40;;;;;24.93;100.00;98927.72;6270986;27;96882;-68
2023/08/19 03:02:36;;;;;;;;;16.00;13.60;;;;;24.88;100.00;98928.69;6249474;27;96835;-69
2023/08/19 03:05:39;;;;;;;;;13.00;11.00;;;;;24.87;100.00;98935.34;6262534;27;97566;-68
2023/08/19 03:08:45;;;;;;;;;13.00;12.00;;;;;24.85;100.00;98934.81;6271326;27;97433;-68
2023/08/19 03:11:49;;;;;;;;;13.40;13.00;;;;;24.83;100.00;98939.81;6247110;27;96617;-69
2023/08/19 03:14:55;;;;;;;;;14.80;13.80;;;;;24.82;100.00;98931.88;6263088;27;96389;-69
2023/08/19 03:18:00;;;;;;;;;12.60;12.60;;;;;24.80;100.00;98945.16;6269746;27;96623;-68
2023/08/19 03:21:05;;;;;;;;;16.60;13.60;;;;;24.76;100.00;98942.22;6250416;27;96738;-68
2023/08/19 03:24:09;;;;;;;;;16.40;14.00;;;;;24.83;100.00;98953.59;6240580;27;97886;-69
2023/08/19 03:27:13;;;;;;;;;16.00;14.20;;;;;24.82;100.00;98943.72;6259223;27;98183;-69
2023/08/19 03:30:18;;;;;;;;;17.00;15.40;;;;;24.79;100.00;98943.50;6250175;27;97095;-68
2023/08/19 03:33:21;;;;;;;;;17.50;16.00;;;;;24.76;100.00;98946.91;6282900;27;96276;-68
2023/08/19 03:36:25;;;;;;;;;15.00;14.00;;;;;24.72;100.00;98951.41;6279555;27;96514;-69
2023/08/19 03:39:28;;;;;;;;;16.00;14.80;;;;;24.63;100.00;98953.28;6262447;27;96791;-68
2023/08/19 03:42:31;;;;;;;;;14.00;13.00;;;;;24.59;100.00;98964.09;6255832;27;97870;-68
2023/08/19 03:45:36;;;;;;;;;16.60;16.00;;;;;24.57;100.00;98966.38;6272480;27;97125;-68
2023/08/19 03:48:40;;;;;;;;;15.40;14.00;;;;;24.56;100.00;98971.06;6266322;27;96895;-68
2023/08/19 03:51:43;;;;;;;;;15.00;13.50;;;;;24.56;100.00;98971.06;6265612;27;96531;-68
2023/08/19 03:54:46;;;;;;;;;15.25;14.00;;;;;24.49;100.00;98959.66;6242865;27;96712;-68
2023/08/19 03:57:51;;;;;;;;;13.00;12.80;;;;;24.51;100.00;98962.09;6234796;27;96782;-68
2023/08/19 04:01:04;;;;;;;;;14.00;14.00;;;;;24.53;100.00;98959.88;6253861;27;96572;-69
2023/08/19 04:04:09;;;;;;;;;18.50;17.00;;;;;24.64;100.00;98963.16;6284729;27;96482;-69
2023/08/19 04:07:12;;;;;;;;;15.60;15.60;;;;;24.68;100.00;98958.69;6287301;27;97984;-68
2023/08/19 04:10:16;;;;;;;;;14.50;14.00;;;;;24.65;100.00;98962.06;6285980;27;97598;-68
2023/08/19 04:13:21;;;;;;;;;15.00;13.40;;;;;24.55;100.00;98963.94;6249557;27;96281;-67
2023/08/19 04:16:25;;;;;;;;;13.60;13.60;;;;;24.56;100.00;98973.84;6268607;27;96964;-68
2023/08/19 04:19:29;;;;;;;;;17.00;15.00;;;;;24.46;100.00;98945.69;6261702;27;97484;-68
2023/08/19 04:22:34;;;;;;;;;15.00;14.00;;;;;24.53;100.00;98971.69;6268810;27;97064;-68
2023/08/19 04:25:38;;;;;;;;;14.00;13.40;;;;;24.55;100.00;98965.88;6259780;27;96573;-69
2023/08/19 04:28:41;;;;;;;;;18.00;16.00;;;;;24.54;100.00;98961.47;6246412;27;97948;-69
2023/08/19 04:31:47;;;;;;;;;15.00;14.00;;;;;24.57;100.00;98966.38;6266427;27;97383;-68
2023/08/19 04:34:50;;;;;;;;;15.60;14.00;;;;;24.56;100.00;98973.00;6285662;27;96301;-68
2023/08/19 04:37:53;;;;;;;;;14.40;14.00;;;;;24.57;100.00;98975.47;6285350;27;97613;-67
2023/08/19 04:40:57;;;;;;;;;18.33;15.67;;;;;24.67;100.00;98981.88;6247464;27;96698;-68
2023/08/19 04:44:03;;;;;;;;;15.00;12.80;;;;;24.55;100.00;98961.16;6242564;27;96813;-69
2023/08/19 04:47:09;;;;;;;;;16.00;14.00;;;;;24.70;100.00;98981.22;6267011;27;96685;-69
2023/08/19 04:50:14;;;;;;;;;19.00;16.00;;;;;24.69;100.00;98982.34;6262451;27;97825;-69
2023/08/19 04:53:17;;;;;;;;;15.00;14.00;;;;;24.72;100.00;98973.47;6268678;27;96385;-68
2023/08/19 04:56:20;;;;;;;;;15.00;14.00;;;;;24.76;100.00;98980.81;6264876;27;96599;-69
2023/08/19 04:59:24;;;;;;;;;17.80;17.20;;;;;24.79;100.00;98973.84;6240235;27;96889;-69
2023/08/19 05:02:28;;;;;;;;;17.00;15.00;;;;;24.87;100.00;98978.66;6254189;27;98559;-68
2023/08/19 05:05:32;;;;;;;;;16.20;15.20;;;;;24.92;100.00;98984.84;6242855;27;96884;-68
2023/08/19 05:08:36;;;;;;;;;18.60;16.60;;;;;24.96;100.00;98985.88;6242297;27;96643;-69
2023/08/19 05:11:40;;;;;;;;;14.33;14.00;;;;;24.98;100.00;98980.84;6242968;27;97125;-68
2023/08/19 05:14:45;;;;;;;;;16.00;16.00;;;;;25.05;100.00;98990.63;6240844;27;98989;-68
2023/08/19 05:17:49;;;;;;;;;16.75;15.75;;;;;25.11;100.00;98984.66;6260268;27;96595;-68
2023/08/19 05:20:53;;;;;;;;;18.40;17.00;;;;;25.21;100.00;98986.34;6220852;27;96748;-68
2023/08/19 05:23:57;;;;;;;;;20.60;18.20;;;;;25.33;100.00;98987.38;6217550;27;99544;-68
2023/08/19 05:27:01;;;;;;;;;19.60;18.60;;;;;25.49;100.00;98978.72;6234224;27;97178;-67
2023/08/19 05:30:07;;;;;;;;;18.20;18.00;;;;;25.67;100.00;98984.03;6260465;27;97543;-69
2023/08/19 05:33:11;;;;;;;;;15.75;15.00;;;;;25.86;100.00;98989.28;6259392;27;96572;-69
2023/08/19 05:36:15;;;;;;;;;16.00;15.00;;;;;26.03;100.00;98994.06;6256787;27;96775;-68
2023/08/19 05:39:18;;;;;;;;;17.00;16.00;;;;;26.20;100.00;98988.56;6254221;27;96440;-68
2023/08/19 05:42:21;;;;;;;;;18.00;17.00;;;;;26.43;100.00;98986.56;6242870;27;96489;-69
2023/08/19 05:45:25;;;;;;;;;15.40;14.00;;;;;26.63;100.00;98994.22;6223579;27;98528;-68
2023/08/19 05:48:29;;;;;;;;;17.00;16.00;;;;;26.85;100.00;98996.00;6247395;27;96523;-69
2023/08/19 05:51:32;;;;;;;;;17.00;17.00;;;;;27.05;100.00;98996.19;6230817;27;97722;-69
2023/08/19 05:54:36;;;;;;;;;18.40;16.00;;;;;27.21;100.00;98996.50;6258475;27;96710;-69
2023/08/19 05:57:39;;;;;;;;;15.33;14.67;;;;;27.40;100.00;98990.59;6258964;27;98628;-69
2023/08/19 06:00:42;;;;;;;;;18.00;16.00;;;;;27.50;100.00;98995.78;6256075;27;96511;-68
2023/08/19 06:03:47;;;;;;;;;19.60;18.20;;;;;27.53;100.00;98995.13;6255824;27;96402;-69
2023/08/19 06:06:50;;;;;;;;;15.40;15.00;;;;;27.64;100.00;99001.13;6237988;27;99800;-69
2023/08/19 06:09:57;;;;;;;;;15.00;13.80;;;;;27.68;100.00;99004.84;6228669;27;97004;-68
2023/08/19 06:13:01;;;;;;;;;16.00;15.00;;;;;27.75;100.00;98999.63;6259276;27;96737;-69
2023/08/19 06:16:06;;;;;;;;;15.50;13.50;;;;;27.91;100.00;99000.69;6254193;27;97062;-69
2023/08/19 06:19:11;;;;;;;;;13.60;12.00;;;;;28.06;100.00;99008.44;6251788;27;96507;-68
2023/08/19 06:22:15;;;;;;;;;15.00;14.00;;;;;28.26;100.00;99013.25;6255683;27;97080;-69
2023/08/19 06:25:18;;;;;;;;;14.00;12.75;;;;;28.46;100.00;99011.66;6216044;27;99515;-69
2023/08/19 06:28:22;;;;;;;;;12.00;11.00;;;;;28.71;100.00;99016.25;6258457;27;96978;-69
2023/08/19 06:31:26;;;;;;;;;13.25;13.00;;;;;28.97;100.00;99004.94;6250471;27;97604;-69
2023/08/19 06:34:32;;;;;;;;;13.00;12.00;;;;;28.67;100.00;98937.59;6257198;27;96703;-70
2023/08/19 06:37:41;;;;;;;;;13.00;12.00;;;;;29.32;100.00;99010.19;6235061;27;98615;-69
2023/08/19 06:40:55;;;;;;;;;14.00;13.00;;;;;29.48;100.00;99011.97;6241826;27;98549;-68
2023/08/19 06:44:01;;;;;;;;;15.00;13.00;;;;;29.58;100.00;99016.28;6240107;27;99646;-69
2023/08/19 06:47:09;;;;;;;;;12.00;12.00;;;;;29.79;100.00;99018.97;6243484;27;97185;-67
2023/08/19 06:50:15;;;;;;;;;12.00;12.00;;;;;30.01;100.00;99016.59;6260852;27;96704;-68
2023/08/19 06:53:19;;;;;;;;;14.60;14.00;;;;;30.08;100.00;99021.59;6253975;27;96606;-69
2023/08/19 06:56:29;;;;;;;;;14.00;14.00;;;;;30.32;100.00;99013.22;6237997;27;98956;-68
2023/08/19 06:59:36;;;;;;;;;11.50;11.00;;;;;30.53;100.00;99016.72;6234699;27;96536;-69
2023/08/19 07:02:40;;;;;;;;;12.00;11.00;;;;;30.76;100.00;99022.56;6237618;27;98683;-68
2023/08/19 07:05:47;;;;;;;;;13.00;12.40;;;;;31.06;100.00;99027.84;6262312;27;96977;-69
2023/08/19 07:08:51;;;;;;;;;15.33;14.00;;;;;31.35;100.00;99035.84;6272878;27;96336;-69
2023/08/19 07:11:55;;;;;;;;;10.25;10.00;;;;;31.31;100.00;99026.59;6289807;27;96764;-69
2023/08/19 07:14:59;;;;;;;;;12.00;11.00;;;;;31.50;100.00;99040.66;6262471;27;97015;-69
2023/08/19 07:18:08;;;;;;;;;12.00;12.00;;;;;31.63;100.00;99036.66;6270703;27;98583;-69
2023/08/19 07:21:14;;;;;;;;;13.20;12.20;;;;;31.80;100.00;99041.09;6290059;27;96650;-69
2023/08/19 07:24:18;;;;;;;;;11.60;10.40;;;;;32.11;100.00;99040.31;6289870;27;97033;-70
2023/08/19 07:27:22;;;;;;;;;12.60;12.00;;;;;32.20;100.00;99046.53;6289402;27;96362;-70
2023/08/19 07:30:26;;;;;;;;;12.00;11.00;;;;;32.33;100.00;99050.84;6252877;27;98597;-70
2023/08/19 07:33:30;;;;;;;;;12.00;11.80;;;;;32.48;100.00;99038.03;6268775;27;98380;-69
2023/08/19 07:36:34;;;;;;;;;14.00;13.50;;;;;32.71;100.00;99046.53;6268152;27;96784;-69
2023/08/19 07:39:39;;;;;;;;;10.20;10.20;;;;;32.78;100.00;99035.56;6267313;27;97047;-69
2023/08/19 07:42:42;;;;;;;;;11.40;10.00;;;;;32.95;100.00;99035.94;6253195;27;96402;-69
2023/08/19 07:45:45;;;;;;;;;10.00;10.00;;;;;33.10;100.00;99049.03;6288123;27;96947;-69
2023/08/19 07:48:48;;;;;;;;;11.80;11.80;;;;;33.14;100.00;99054.69;6269903;27;96842;-69
2023/08/19 07:51:53;;;;;;;;;13.25;13.00;;;;;33.42;100.00;99055.31;6279932;27;96520;-69
2023/08/19 07:54:58;;;;;;;;;13.20;11.20;;;;;33.53;100.00;99066.66;6268994;27;96839;-69
2023/08/19 07:58:01;;;;;;;;;11.00;11.00;;;;;33.50;100.00;99061.84;6268018;27;96710;-69
2023/08/19 08:01:05;;;;;;;;;10.60;10.00;;;;;33.52;100.00;99048.31;6276331;27;96350;-69
2023/08/19 08:04:08;;;;;;;;;10.20;9.20;;;;;33.72;100.00;99069.47;6267305;27;99741;-69
2023/08/19 08:07:13;;;;;;;;;11.50;10.25;;;;;33.94;100.00;99048.31;6286920;27;96421;-69
2023/08/19 08:10:16;;;;;;;;;10.80;10.80;;;;;34.04;100.00;99066.44;6267922;27;96804;-69
2023/08/19 08:13:19;;;;;;;;;11.00;10.00;;;;;34.22;100.00;99064.78;6258003;27;96824;-69
2023/08/19 08:16:22;;;;;;;;;12.00;10.00;;;;;34.41;100.00;99081.50;6284412;27;97745;-69
2023/08/19 08:19:26;;;;;;;;;13.00;11.80;;;;;34.49;100.00;99069.25;6286258;27;96116;-69
2023/08/19 08:22:32;;;;;;;;;12.00;11.25;;;;;34.72;100.00;99081.22;6283073;27;96361;-69
2023/08/19 08:25:37;;;;;;;;;11.60;11.60;;;;;35.08;100.00;99076.13;6287319;27;96407;-69
2023/08/19 08:28:41;;;;;;;;;14.00;11.00;;;;;35.43;100.00;99081.41;6263510;27;97033;-69
2023/08/19 08:31:44;;;;;;;;;11.40;11.40;;;;;35.70;100.00;99085.75;6251243;27;96793;-69
2023/08/19 08:34:47;;;;;;;;;12.00;10.25;;;;;35.88;100.00;99077.50;6263159;27;96469;-69
2023/08/19 08:37:52;;;;;;;;;11.00;11.00;;;;;36.19;100.00;99081.84;6264915;27;96536;-69
2023/08/19 08:40:57;;;;;;;;;12.67;10.33;;;;;36.52;100.00;99087.31;6271401;27;96796;-69
2023/08/19 08:44:01;;;;;;;;;11.00;10.00;;;;;36.67;100.00;99072.22;6287630;27;96500;-69
2023/08/19 08:47:04;;;;;;;;;11.00;10.60;;;;;36.81;100.00;99074.31;6288000;27;96394;-69
2023/08/19 08:50:09;;;;;;;;;13.00;12.60;;;;;37.06;100.00;99075.25;6268144;27;97016;-69
2023/08/19 08:53:14;;;;;;;;;12.00;12.00;;;;;37.36;100.00;99071.41;6276436;27;96509;-69
2023/08/19 08:56:19;;;;;;;;;11.75;11.25;;;;;37.59;100.00;99077.53;6255549;27;97108;-69
2023/08/19 08:59:22;;;;;;;;;11.00;10.00;;;;;37.88;100.00;99072.75;6260631;27;98428;-69
2023/08/19 09:02:28;;;;;;;;;12.40;11.40;;;;;38.11;100.00;99079.69;6227336;27;96896;-69
2023/08/19 09:05:33;;;;;;;;;11.00;10.00;;;;;38.33;100.00;99074.84;6262737;27;97195;-69
2023/08/19 09:08:43;;;;;;;;;12.00;11.00;;;;;38.38;100.00;99076.47;6244298;27;97208;-69
2023/08/19 09:11:52;;;;;;;;;12.00;11.80;;;;;38.60;100.00;99078.09;6252159;27;96971;-69
2023/08/19 09:15:02;;;;;;;;;14.67;13.67;;;;;38.85;100.00;99069.59;6269044;27;96715;-69
2023/08/19 09:18:07;;;;;;;;;12.00;12.00;;;;;39.04;100.00;99063.53;6263278;27;96363;-69
2023/08/19 09:21:11;;;;;;;;;10.00;9.25;;;;;39.17;100.00;99069.50;6276430;27;96632;-70
2023/08/19 09:24:17;;;;;;;;;11.00;11.00;;;;;39.26;100.00;99069.88;6282112;27;96358;-69
2023/08/19 09:27:27;;;;;;;;;12.40;12.00;;;;;39.36;100.00;99074.69;6275448;27;96583;-69
2023/08/19 09:30:34;;;;;;;;;13.00;11.00;;;;;39.60;100.00;99072.97;6265811;27;97801;-69
2023/08/19 09:33:43;;;;;;;;;11.50;11.00;;;;;39.46;99.58;99071.03;6237006;27;98608;-69
2023/08/19 09:36:46;;;;;;;;;11.00;11.00;;;;;39.45;100.00;99063.75;6269309;27;98405;-69
2023/08/19 09:39:51;;;;;;;;;12.00;11.20;;;;;39.54;100.00;99063.34;6265354;27;98473;-69
2023/08/19 09:42:57;;;;;;;;;10.80;10.80;;;;;39.67;100.00;99061.66;6280933;27;96309;-68
2023/08/19 09:46:01;;;;;;;;;12.00;12.00;;;;;39.37;100.00;99070.66;6281852;27;96937;-69
2023/08/19 09:49:04;;;;;;;;;13.50;13.00;;;;;39.16;100.00;99076.34;6242341;27;98670;-69
2023/08/19 09:52:16;;;;;;;;;14.00;13.40;;;;;39.04;100.00;99069.16;6263770;27;96891;-69
2023/08/19 09:55:24;;;;;;;;;13.00;13.00;;;;;39.02;100.00;99060.28;6274893;27;96436;-69
2023/08/19 09:58:28;;;;;;;;;12.00;11.40;;;;;39.19;99.55;99076.38;6283580;27;96402;-69
2023/08/19 10:01:32;;;;;;;;;14.00;13.00;;;;;39.23;100.00;99071.50;6267413;27;98576;-69
2023/08/19 10:04:36;;;;;;;;;13.00;13.00;;;;;39.55;100.00;99059.28;6281976;27;97037;-69
2023/08/19 10:07:45;;;;;;;;;14.40;14.00;;;;;39.87;100.00;99059.94;6283868;27;96400;-69
2023/08/19 10:10:50;;;;;;;;;13.00;13.00;;;;;40.15;98.23;99070.22;6262843;27;96372;-69
2023/08/19 10:13:56;;;;;;;;;17.80;16.80;;;;;40.36;98.11;99064.41;6287465;27;96911;-69
2023/08/19 10:17:04;;;;;;;;;11.40;10.40;;;;;40.49;95.59;99056.22;6289756;27;97066;-69
2023/08/19 10:20:11;;;;;;;;;14.00;13.00;;;;;40.52;90.65;99049.72;6267619;27;96720;-69
2023/08/19 10:23:17;;;;;;;;;12.60;12.00;;;;;40.60;89.87;99054.09;6269499;27;97003;-69
2023/08/19 10:26:22;;;;;;;;;12.00;11.40;;;;;40.77;95.54;99053.13;6270935;27;96672;-69
2023/08/19 10:29:25;;;;;;;;;13.50;13.00;;;;;40.94;91.26;99052.16;6289395;27;96329;-69
2023/08/19 10:32:30;;;;;;;;;12.60;11.60;;;;;40.95;83.70;99053.75;6271926;27;98791;-69
2023/08/19 10:36:02;;;;;;;;;11.00;10.50;;;;;40.92;83.60;99046.09;6272771;27;96362;-69
2023/08/19 10:39:15;;;;;;;;;13.00;12.00;;;;;41.03;88.56;99043.97;6265589;27;96356;-69
2023/08/19 10:42:26;;;;;;;;;10.50;10.00;;;;;41.06;85.83;99045.16;6270326;27;96428;-69
2023/08/19 10:45:31;;;;;;;;;12.00;11.60;;;;;41.18;85.10;99044.59;6268858;27;97188;-69
2023/08/19 10:48:34;;;;;;;;;13.00;12.60;;;;;41.22;84.63;99024.75;6251918;27;98406;-69
2023/08/19 10:51:53;;;;;;;;;12.00;10.40;;;;;41.40;80.87;99039.47;6271114;27;96934;-69
2023/08/19 10:54:59;;;;;;;;;12.20;11.00;;;;;41.29;77.52;99048.09;6256420;27;96281;-69
2023/08/19 10:58:04;;;;;;;;;11.80;11.00;;;;;41.11;81.16;99039.03;6271784;27;96387;-69
2023/08/19 11:01:07;;;;;;;;;11.00;10.00;;;;;40.77;82.24;99029.72;6269704;27;99269;-69
2023/08/19 11:04:10;;;;;;;;;11.00;11.00;;;;;40.94;83.74;99031.53;6270147;27;96944;-69
2023/08/19 11:07:14;;;;;;;;;12.25;11.00;;;;;41.20;83.02;99041.38;6269177;27;98487;-69
2023/08/19 11:10:17;;;;;;;;;9.67;9.00;;;;;41.30;80.66;99031.94;6270404;27;96954;-69
2023/08/19 11:13:23;;;;;;;;;11.60;11.60;;;;;41.37;78.99;99024.16;6267005;27;97122;-70
2023/08/19 11:16:27;;;;;;;;;10.60;10.00;;;;;41.64;78.30;99024.19;6268283;27;96733;-69
2023/08/19 11:19:32;;;;;;;;;9.00;9.00;;;;;41.80;70.87;99026.38;6283282;27;96356;-69
2023/08/19 11:22:41;;;;;;;;;11.60;11.60;;;;;41.81;73.57;99022.31;6285931;27;97030;-69
2023/08/19 11:25:45;;;;;;;;;10.20;10.00;;;;;41.88;75.99;99022.25;6265897;27;96569;-69
2023/08/19 11:28:51;;;;;;;;;9.60;9.60;;;;;41.76;73.79;99017.13;6267435;27;96564;-69
2023/08/19 11:31:54;;;;;;;;;11.00;10.00;;;;;41.40;71.09;99017.63;6265848;27;97429;-69
2023/08/19 11:34:57;;;;;;;;;10.60;10.00;;;;;41.09;70.30;98994.22;6265240;27;96635;-69
2023/08/19 11:38:01;;;;;;;;;9.80;8.80;;;;;41.09;69.26;99008.34;6282813;27;98711;-69
2023/08/19 11:41:04;;;;;;;;;9.00;8.00;;;;;41.08;66.37;99001.09;6272579;27;96501;-69
2023/08/19 11:44:09;;;;;;;;;9.00;9.00;;;;;41.24;75.57;99011.00;6280657;27;97052;-69
2023/08/19 11:47:13;;;;;;;;;9.00;8.60;;;;;41.38;71.46;99007.97;6251527;27;96820;-69
2023/08/19 11:50:16;;;;;;;;;9.00;9.00;;;;;41.54;74.24;99008.19;6262613;27;96218;-69
2023/08/19 11:53:24;;;;;;;;;10.00;9.00;;;;;41.67;73.57;99000.69;6285482;27;96863;-69
2023/08/19 11:56:27;;;;;;;;;9.00;9.00;;;;;41.88;71.29;99006.03;6268820;27;97697;-70
2023/08/19 11:59:33;;;;;;;;;9.80;9.20;;;;;42.03;72.88;99000.16;6289143;27;96387;-70
2023/08/19 12:02:37;;;;;;;;;10.00;10.00;;;;;42.26;72.37;99000.94;6281854;27;97723;-69
2023/08/19 12:05:44;;;;;;;;;9.00;8.00;;;;;42.40;72.46;99004.78;6288804;27;96328;-69
2023/08/19 12:08:48;;;;;;;;;8.00;7.00;;;;;42.55;73.00;99004.09;6270130;27;96515;-70
2023/08/19 12:12:02;;;;;;;;;11.00;10.00;;;;;42.60;70.76;98991.44;6269740;27;96720;-70
2023/08/19 12:15:07;;;;;;;;;9.25;9.00;;;;;42.32;68.52;98995.63;6278531;27;96354;-69
2023/08/19 12:18:15;;;;;;;;;10.00;9.00;;;;;42.04;71.38;98988.38;6269603;27;97474;-70
2023/08/19 12:21:18;;;;;;;;;8.40;8.00;;;;;42.12;74.68;98994.75;6276704;27;96376;-70
2023/08/19 12:24:21;;;;;;;;;11.50;11.00;;;;;42.21;73.55;98998.63;6274957;27;96883;-70
2023/08/19 12:27:24;;;;;;;;;9.00;9.00;;;;;42.27;71.83;98996.13;6284162;27;97094;-69
2023/08/19 12:30:29;;;;;;;;;11.00;11.00;;;;;42.27;74.37;98990.47;6286671;27;96921;-69
2023/08/19 12:33:32;;;;;;;;;11.50;11.00;;;;;42.17;71.91;98994.25;6281957;27;97358;-69
2023/08/19 12:36:36;;;;;;;;;10.60;10.00;;;;;41.87;70.30;98983.81;6237640;27;98339;-69
2023/08/19 12:39:40;;;;;;;;;11.40;10.60;;;;;41.89;71.28;98990.66;6262233;27;96613;-68
2023/08/19 12:42:43;;;;;;;;;10.60;9.60;;;;;41.88;73.24;98982.59;6281788;27;96885;-68
2023/08/19 12:45:53;;;;;;;;;11.00;10.00;;;;;41.63;69.35;98996.31;6282317;27;97659;-68
2023/08/19 12:48:56;;;;;;;;;11.00;11.00;;;;;41.18;70.84;98990.06;6244746;27;97718;-68
2023/08/19 12:51:59;;;;;;;;;9.00;9.00;;;;;40.90;73.10;98989.19;6258223;27;97020;-68
2023/08/19 12:55:03;;;;;;;;;11.00;10.40;;;;;40.58;76.51;98985.88;6259617;27;98626;-68
2023/08/19 12:58:07;;;;;;;;;9.00;9.00;;;;;40.31;77.54;98999.09;6246440;27;96812;-68
2023/08/19 13:01:12;;;;;;;;;11.00;10.40;;;;;39.83;76.48;98988.59;6260708;27;96647;-68
2023/08/19 13:04:15;;;;;;;;;9.50;9.00;;;;;39.52;79.47;98995.22;6278811;27;96631;-68
2023/08/19 13:07:18;;;;;;;;;10.00;9.40;;;;;39.04;82.92;98990.22;6277354;27;96584;-68
2023/08/19 13:10:22;;;;;;;;;10.20;9.80;;;;;38.63;85.95;98973.00;6253937;27;97820;-68
2023/08/19 13:13:25;;;;;;;;;11.40;10.40;;;;;38.45;87.12;98998.44;6259222;27;96896;-68
2023/08/19 13:16:30;;;;;;;;;11.00;9.00;;;;;38.21;88.96;98993.59;6258767;27;97740;-68
2023/08/19 13:19:34;;;;;;;;;11.00;10.60;;;;;37.92;90.69;99006.06;6284852;27;96278;-68
2023/08/19 13:22:37;;;;;;;;;11.60;11.40;;;;;37.60;94.36;99000.38;6265015;27;97648;-68
2023/08/19 13:25:41;;;;;;;;;13.00;11.00;;;;;37.35;94.48;98994.66;6268546;27;96610;-68
2023/08/19 13:28:44;;;;;;;;;11.60;11.00;;;;;37.08;96.33;99001.81;6267115;27;98382;-68
2023/08/19 13:31:49;;;;;;;;;12.00;11.60;;;;;36.90;98.85;98990.44;6263127;27;97225;-68
2023/08/19 13:34:52;;;;;;;;;12.00;11.80;;;;;36.73;100.00;98991.19;6278402;27;96382;-68
2023/08/19 13:37:56;;;;;;;;;12.60;11.60;;;;;36.43;100.00;98992.19;6264529;27;96493;-69
2023/08/19 13:40:59;;;;;;;;;13.00;13.00;;;;;36.39;100.00;99008.22;6283449;27;96267;-68
2023/08/19 13:44:02;;;;;;;;;14.00;12.00;;;;;36.21;100.00;99007.28;6256251;27;96837;-68
2023/08/19 13:47:07;;;;;;;;;11.25;11.00;;;;;35.98;100.00;99009.44;6282778;27;96821;-68
2023/08/19 13:50:11;;;;;;;;;12.20;11.80;;;;;35.73;100.00;99014.03;6253742;27;99488;-68
2023/08/19 13:53:14;;;;;;;;;12.50;12.25;;;;;35.57;100.00;99009.47;6289249;27;96644;-68
2023/08/19 13:56:17;;;;;;;;;13.00;13.00;;;;;35.49;100.00;99006.94;6272016;27;97058;-67
2023/08/19 13:59:20;;;;;;;;;13.50;12.00;;;;;35.57;100.00;98997.44;6267593;27;96345;-70
2023/08/19 14:02:25;;;;;;;;;13.00;13.00;;;;;35.55;100.00;99003.41;6273575;27;96553;-71